AirNav   Air Wisconsin Up To $57,000 Bonus
 
 791 users online  

KPYG Pageland Airport
Pageland, South Carolina, USA

GOING TO PAGELAND?


FAA INFORMATION EFFECTIVE 05 DECEMBER 2019

Location

FAA Identifier: PYG
Lat/Long: 34-44-31.7000N 080-20-42.7000W
34-44.528333N 080-20.711667W
34.7421389,-80.3451944
(estimated)
Elevation: 574.9 ft. / 175.2 m (surveyed)
Variation: 08W (2020)
From city: 3 miles SE of PAGELAND, SC
Time zone: UTC -5 (UTC -4 during Daylight Saving Time)
Zip code: 29728

Airport Operations

Airport use: Open to the public
Control tower: no
ARTCC: ATLANTA CENTER
FSS: ANDERSON FLIGHT SERVICE STATION
NOTAMs facility: AND (NOTAM-D service available)
Attendance: UNATNDD
Wind indicator: lighted
Segmented circle: yes
Lights: ACTVT PAPI RWY 6 & 24 - CTAF.
Beacon: white-green (lighted land airport)
Operates sunset to sunrise.

Airport Communications

CTAF: 122.9
CHARLOTTE APPROACH: 120.05
CHARLOTTE DEPARTURE: 120.05
WX AWOS-3 at CQW (19 nm E): 124.825 (843-537-3301)

Nearby radio navigation aids

VOR radial/distance  VOR name  Freq  Var
CTFr331/6.5CHESTERFIELD VOR/DME108.2003W

 
NDB name  Hdg/Dist  Freq  Var  ID
HARTSVILLE338/23.034107WHVS .... ...- ...
LANCASTER094/25.440007WLKR .-.. -.- .-.
DARLINGTON314/28.924506WUDG ..- -.. --.
BENNETTSVILLE292/31.123008WBES -... . ...

Airport Services

Fuel available: 100LL
SELF SVC FUEL AVBL 24 HRS.
Parking: tiedowns
Airframe service: NONE
Powerplant service: NONE
Bottled oxygen: NONE
Bulk oxygen: NONE

Runway Information

Runway 6/24

Dimensions: 3396 x 60 ft. / 1035 x 18 m
Surface: asphalt, in good condition
Weight bearing capacity: 
Single wheel: 12.5
Runway edge lights: medium intensity
RUNWAY 6  RUNWAY 24
Latitude: 34-44.349642N34-44.706580N
Longitude: 080-20.972250W080-20.449893W
Elevation: 549.9 ft.574.9 ft.
Traffic pattern: leftleft
Runway heading: 058 magnetic, 050 true238 magnetic, 230 true
Markings: nonprecision, in good conditionnonprecision, in good condition
Visual slope indicator: 2-light PAPI on left (3.00 degrees glide path)2-light PAPI on left (3.00 degrees glide path)
Runway end identifier lights: yesyes
Touchdown point: yes, no lightsyes, no lights

Airport Ownership and Management from official FAA records

Ownership: Publicly-owned
Owner: TOWN OF PAGELAND
126 N PEARL ST
PAGELAND, SC 29728-1951
Phone 843-672-7292
Manager: CECIL KIMREY
126 N PEARL ST, 126 N PEARL ST
PAGELAND, SC 29728-1951
Phone 843-672-7292

Airport Operational Statistics

Aircraft based on the field: 11
Single engine airplanes: 10
Multi engine airplanes: 1
    
Aircraft operations: avg 44/week *
57% local general aviation
43% transient general aviation
* for 12-month period ending 29 May 2019

Additional Remarks

A50-24 31 FT POWER POLE 182 FT FROM RWY END, 188 FT R OF CNTRLN.
FOR CD CTC CHARLOTTE APCH AT 704-359-0241.

Instrument Procedures

NOTE: All procedures below are presented as PDF files. If you need a reader for these files, you should download the free Adobe Reader.

NOT FOR NAVIGATION. Please procure official charts for flight.
FAA instrument procedures published for use from 05 December 2019 at 0900Z to 02 January 2020 at 0900Z.

 
IAPs - Instrument Approach Procedures
RNAV (GPS) RWY 06   download (186KB)
RNAV (GPS) RWY 24   download (180KB)
NOTE: Special Take-Off Minimums/Departure Procedures apply   download (141KB)

Other nearby airports with instrument procedures:

KCQW - Cheraw Municipal Airport/Lynch Bellinger Field (19 nm E)
N52 - JAARS-Townsend Airport (21 nm W)
KAFP - Anson County Airport - Jeff Cloud Field (21 nm NE)
KEQY - Charlotte-Monroe Executive Airport (21 nm NW)
KHVS - Hartsville Regional Airport (23 nm SE)
 
Loc | Ops | Rwys | IFR | FBO | Links
Com | Nav | Svcs | Stats | Notes
Area around KPYG (Pageland Airport)
 
Road maps at: MapQuest Bing Google
 
Aerial photo
WARNING: Photo may not be current or correct
Aerial photo of KPYG (Pageland Airport)
Do you have a better or more recent aerial photo of Pageland Airport that you would like to share? If so, please send us your photo.

 
Sectional chart

 
Airport distance calculator
Flying to Pageland Airport? Find the distance to fly.

From to KPYG

Sunrise and sunset
Times for 09-Dec-2019
 Local
(UTC-5)
 Zulu
(UTC)
Morning civil twilight06:5011:50
Sunrise07:1812:18
Sunset17:0922:09
Evening civil twilight17:3722:37

Current date and time
Zulu (UTC)  09-Dec-2019 13:32:03
Local (UTC-5)  09-Dec-2019 08:32:03
 
METAR
KCQW 
19nm E 
091315Z AUTO 00000KT 1/4SM FG OVC002 07/06 A3014 RMK AO2
KEQY 
21nm NW 
091253Z AUTO 00000KT 10SM OVC007 06/02 A3013 RMK AO2 RAB1158E20 SLP219 P0000 T00560022
KAFP 
21nm NE 
091315Z AUTO 7SM 06/04 A3015 RMK AO2 T00570037
KHVS 
23nm SE 
091315Z AUTO 00000KT 1/4SM FG OVC003 07/07 A3015 RMK AO2
KLKR 
25nm W 
091315Z AUTO 00000KT 10SM OVC007 06/03 A3014 RMK AO2
KUDG 
29nm SE 
091256Z AUTO 07003KT 1/4SM -RA FG OVC003 07/07 A3015 RMK AO2 RAB08 SLP213 P0000 T00670067
KCDN 
30nm S 
091315Z AUTO 00000KT 2 1/2SM BR OVC003 07/06 A3015 RMK AO2
KRCZ 
30nm E 
091315Z AUTO 00000KT 1/2SM FG OVC002 06/05 A3015 RMK AO2 T00630045
KBBP 
31nm E 
091315Z AUTO 00000KT 1/4SM FG OVC003 06/06 A3014 RMK AO2
KUZA 
38nm NW 
091254Z AUTO 00000KT 10SM -RA OVC007 06/00 A3014 RMK AO2 RAB07 SLP210 P0000 T00610000
TAF
KCLT 
41nm NW 
091138Z 0912/1018 03003KT P6SM OVC010 TEMPO 0913/0915 6SM -RADZ SCT008 BKN022 FM091500 20004KT P6SM VCSH OVC005 WS020/20035KT FM092200 20006KT 5SM BR OVC009 WS020/22040KT FM100600 21009KT P6SM OVC005 WS020/23040KT FM100800 21009KT 4SM BR OVC004 FM101200 21008KT P6SM VCSH OVC003 PROB30 1012/1018 4SM -RA
KFLO 
45nm SE 
091131Z 0912/1012 35004KT 1/4SM FG VV002 TEMPO 0912/0913 3/4SM BR VV003 FM091300 20002KT 1 1/2SM BR OVC003 FM091500 16002KT 5SM BR BKN004 OVC150 FM091700 20008KT P6SM BKN007 OVC150 TEMPO 0917/0918 SCT008 FM091800 20008KT P6SM SCT010 BKN250 WS020/21035KT FM092000 19008KT P6SM BKN250 WS020/22040KT
KSSC 
47nm S 
091146Z 0911/1014 VRB06KT 1600 BR OVC002 QNH3017INS BECMG 0915/0916 VRB06KT 9999 NSW OVC002 QNH3015INS BECMG 0919/0920 VRB06KT 9999 OVC005 QNH3003INS BECMG 1004/1005 VRB06KT 9999 OVC003 QNH3002INS TX19/0920Z TN07/0911Z
NOTAMs
Click for the latest NOTAMs
NOTAMs are issued by the DoD/FAA and will open in a separate window not controlled by AirNav.

 

 
 

FBO, Fuel Providers, and Aircraft Ground Support

  
 Business Name 
 
 Contact 
 
 Services / Description 
 
Fuel Prices
 
Comments
  
Town of Pageland (self-serve fuel) 843-672-7292
no information available

If you are affiliated with Town of Pageland (self-serve fuel) and would like to show here your services, contact info, web link, logo, and more, click here
100LL
SS $4.70 
 Updated 25-Nov-2019
 
   1 read write
SS=Self service
Update Fuel Prices
 

Would you like to see your business listed on this page?

 If your business provides an interesting product or service to pilots, flight crews, aircraft, or users of the Pageland Airport, you should consider listing it here.  To start the listing process, click on the button below
 
Add a business
 

Other Pages about Pageland Airport

Update a link
 
Copyright © AirNav, LLC. All rights reserved. Privacy Policy  Contact